createdAt,value
2022-11-12T08:25:03.520Z,100436.91
2022-11-12T08:28:26.698Z,100443.47
2022-11-12T08:31:49.501Z,100435.47
2022-11-12T08:35:11.841Z,100439.47
2022-11-12T08:38:34.666Z,100446.56
2022-11-12T08:41:58.495Z,100447.66
2022-11-12T08:45:21.050Z,100456.97
2022-11-12T08:48:43.842Z,100453.72
2022-11-12T08:52:06.362Z,100445.31
2022-11-12T08:55:29.149Z,100449.88
2022-11-12T08:58:53.422Z,100450.41
2022-11-12T09:02:16.197Z,100438.97
2022-11-12T09:05:38.976Z,100436.00
2022-11-12T09:09:01.633Z,100432.94
2022-11-12T09:12:24.436Z,100426.34
2022-11-12T09:15:48.638Z,100433.63
2022-11-12T09:19:11.349Z,100428.53
2022-11-12T09:22:34.674Z,100415.59
2022-11-12T09:25:57.950Z,100417.91
2022-11-12T09:29:20.725Z,100418.63
2022-11-12T09:32:44.624Z,100420.81
2022-11-12T09:36:07.383Z,100413.09
2022-11-12T09:39:30.010Z,100416.69
2022-11-12T09:42:54.469Z,100418.09
2022-11-12T09:46:28.711Z,100418.47
2022-11-12T09:49:59.185Z,100434.19
2022-11-12T09:53:28.718Z,100426.50
2022-11-12T09:56:52.096Z,100423.16
2022-11-12T10:00:17.968Z,100429.69
2022-11-12T10:03:47.035Z,100426.91
2022-11-12T10:07:21.327Z,100425.94
2022-11-12T10:10:48.615Z,100417.19
2022-11-12T10:14:20.769Z,100411.69
2022-11-12T10:17:50.949Z,100406.59
2022-11-12T10:21:21.455Z,100408.06
2022-11-12T10:24:46.378Z,100407.81
2022-11-12T10:28:21.080Z,100409.47
2022-11-12T10:31:43.908Z,100402.66
2022-11-12T10:35:06.686Z,100393.59
2022-11-12T10:38:30.405Z,100400.69
2022-11-12T10:42:04.096Z,100389.56
2022-11-12T10:45:26.936Z,100379.34
2022-11-12T10:48:57.718Z,100382.72
2022-11-12T10:52:24.233Z,100373.53
2022-11-12T10:55:57.278Z,100379.50
2022-11-12T10:59:24.440Z,100373.16
2022-11-12T11:02:50.758Z,100377.94
2022-11-12T11:06:23.363Z,100369.44
2022-11-12T11:09:54.615Z,100364.66
2022-11-12T11:13:21.506Z,100364.66
2022-11-12T11:16:53.440Z,100357.75
2022-11-12T11:20:28.979Z,100351.00
2022-11-12T11:23:57.428Z,100360.44
2022-11-12T11:27:31.018Z,100351.59
2022-11-12T11:30:59.943Z,100348.22
2022-11-12T11:34:36.109Z,100355.22
2022-11-12T11:38:12.788Z,100349.94
2022-11-12T11:41:52.757Z,100338.03
2022-11-12T11:45:20.141Z,100336.81
2022-11-12T11:48:56.770Z,100342.84
2022-11-12T11:52:39.267Z,100343.91
2022-11-12T11:56:06.530Z,100339.97
2022-11-12T11:59:41.629Z,100334.38
2022-11-12T12:03:18.538Z,100339.00
2022-11-12T12:06:46.536Z,100345.09
2022-11-12T12:10:34.753Z,100338.81
2022-11-12T12:14:23.419Z,100330.06
2022-11-12T12:17:59.762Z,100332.94
2022-11-12T12:21:26.123Z,100333.16
2022-11-12T12:24:52.671Z,100327.47
2022-11-12T12:28:23.815Z,100328.47
2022-11-12T12:31:51.061Z,100324.22
2022-11-12T12:35:23.157Z,100326.50
2022-11-12T12:38:50.087Z,100328.56
2022-11-12T12:42:18.580Z,100318.53
2022-11-12T12:45:44.247Z,100317.81
2022-11-12T12:49:08.997Z,100306.25
2022-11-12T12:52:31.786Z,100307.91
2022-11-12T12:55:58.570Z,100306.50
2022-11-12T12:59:23.677Z,100306.06
2022-11-12T13:02:47.540Z,100297.63
2022-11-12T13:06:16.613Z,100299.22
2022-11-12T13:09:39.753Z,100287.28
2022-11-12T13:13:05.549Z,100282.69
2022-11-12T13:16:54.669Z,100284.09
2022-11-12T13:20:34.743Z,100284.53
2022-11-12T13:24:08.719Z,100283.47
2022-11-12T13:28:01.427Z,100278.66
2022-11-12T13:31:28.646Z,100270.38
2022-11-12T13:34:50.998Z,100266.19
2022-11-12T13:38:16.747Z,100272.13
2022-11-12T13:41:50.402Z,100277.56
2022-11-12T13:45:13.528Z,100274.75
2022-11-12T13:48:40.296Z,100272.13
2022-11-12T13:52:02.948Z,100267.66
2022-11-12T13:55:27.412Z,100262.47
2022-11-12T13:58:49.993Z,100267.25
2022-11-12T14:02:22.563Z,100271.66
2022-11-12T14:05:49.782Z,100266.00
2022-11-12T14:09:26.237Z,100269.25
2022-11-12T14:13:06.634Z,100257.72
2022-11-12T14:16:39.339Z,100263.03
2022-11-12T14:20:20.363Z,100260.56
2022-11-12T14:23:46.565Z,100258.19
2022-11-12T14:27:24.488Z,100252.06
2022-11-12T14:30:48.635Z,100257.91
2022-11-12T14:37:56.037Z,100240.50
2022-11-12T14:41:22.407Z,100231.19
2022-11-12T14:44:44.998Z,100225.16
2022-11-12T14:48:11.156Z,100216.50
2022-11-12T14:51:38.929Z,100220.13
2022-11-12T14:55:10.659Z,100216.75
2022-11-12T14:58:34.370Z,100213.38
2022-11-12T15:02:29.553Z,100207.31
2022-11-12T15:05:59.951Z,100211.31
2022-11-12T15:09:34.447Z,100204.44
2022-11-12T15:13:03.857Z,100207.06
2022-11-12T15:16:30.880Z,100209.28
2022-11-12T15:19:53.531Z,100206.19
2022-11-12T15:23:20.125Z,100203.72
2022-11-12T15:26:45.176Z,100206.34
2022-11-12T15:30:17.799Z,100198.38
2022-11-12T15:33:40.610Z,100197.34
2022-11-12T15:37:06.733Z,100197.00
2022-11-12T15:40:32.286Z,100201.44
2022-11-12T15:43:55.100Z,100202.56
2022-11-12T15:47:22.250Z,100199.34
2022-11-12T15:50:45.544Z,100194.97
2022-11-12T15:54:08.264Z,100185.31
2022-11-12T15:57:33.641Z,100189.66
2022-11-12T16:00:56.638Z,100187.19
2022-11-12T16:04:19.302Z,100186.97
2022-11-12T16:07:42.311Z,100182.03
2022-11-12T16:11:25.293Z,100181.38
2022-11-12T16:14:49.391Z,100184.63
2022-11-12T16:18:12.647Z,100177.34
2022-11-12T16:21:35.292Z,100185.72
2022-11-12T16:24:58.392Z,100183.03
2022-11-12T16:28:21.101Z,100189.84
2022-11-12T16:31:45.520Z,100181.13
2022-11-12T16:35:08.493Z,100176.38
2022-11-12T16:38:31.329Z,100181.34
2022-11-12T16:41:54.203Z,100180.03
2022-11-12T16:45:17.871Z,100174.22
2022-11-12T16:48:41.769Z,100172.22
2022-11-12T16:52:04.466Z,100168.19
2022-11-12T16:55:27.155Z,100165.97
2022-11-12T16:58:50.569Z,100168.16
2022-11-12T17:02:16.634Z,100170.69
2022-11-12T17:05:40.571Z,100166.38
2022-11-12T17:09:03.269Z,100160.69
2022-11-12T17:12:26.322Z,100157.75
2022-11-12T17:15:49.158Z,100158.88
2022-11-12T17:19:12.171Z,100164.75
2022-11-12T17:22:36.519Z,100159.66
2022-11-12T17:26:03.005Z,100170.63
2022-11-12T17:29:25.650Z,100171.06
2022-11-12T17:32:49.011Z,100168.22
2022-11-12T17:36:13.632Z,100165.88
2022-11-12T17:39:37.749Z,100169.16
2022-11-12T17:43:00.434Z,100170.22
2022-11-12T17:46:23.383Z,100165.63
2022-11-12T17:49:46.192Z,100169.28
2022-11-12T17:53:09.412Z,100164.72
2022-11-12T17:56:36.922Z,100164.34
2022-11-12T18:00:00.140Z,100159.75
2022-11-12T18:03:23.362Z,100164.88
2022-11-12T18:06:45.993Z,100160.91
2022-11-12T18:10:08.833Z,100150.50
2022-11-12T18:13:33.744Z,100150.69
2022-11-12T18:16:58.680Z,100143.75
2022-11-12T18:20:21.332Z,100147.25
2022-11-12T18:23:45.772Z,100146.03
2022-11-12T18:27:08.563Z,100148.56
2022-11-12T18:30:34.222Z,100149.66
2022-11-12T18:33:57.467Z,100145.41
2022-11-12T18:37:20.506Z,100135.72
2022-11-12T18:40:43.173Z,100134.28
2022-11-12T18:44:05.902Z,100124.53
2022-11-12T18:47:30.844Z,100132.97
2022-11-12T18:50:53.623Z,100132.25
2022-11-12T18:54:16.333Z,100129.06
2022-11-12T18:57:38.812Z,100130.94
2022-11-12T19:01:04.038Z,100123.63
2022-11-12T19:04:28.571Z,100126.69
2022-11-12T19:07:51.197Z,100118.81
2022-11-12T19:11:15.814Z,100113.66
2022-11-12T19:14:38.112Z,100115.13
2022-11-12T19:18:00.877Z,100114.94
2022-11-12T19:21:26.512Z,100109.13
2022-11-12T19:24:49.816Z,100118.75
2022-11-12T19:28:12.332Z,100114.03
2022-11-12T19:31:35.391Z,100109.25
2022-11-12T19:34:58.408Z,100101.56
2022-11-12T19:38:22.266Z,100101.34
2022-11-12T19:41:45.015Z,100098.94
2022-11-12T19:45:08.274Z,100094.59
2022-11-12T19:48:31.876Z,100100.41
2022-11-12T19:51:54.724Z,100099.69
2022-11-12T19:55:19.039Z,100102.47
2022-11-12T19:58:41.747Z,100104.50
2022-11-12T20:02:04.407Z,100101.03
2022-11-12T20:05:27.129Z,100104.50
2022-11-12T20:08:49.892Z,100096.13
2022-11-12T20:12:14.177Z,100090.66
2022-11-12T20:15:39.678Z,100082.47
2022-11-12T20:19:03.690Z,100082.63
2022-11-12T20:22:31.649Z,100071.84
2022-11-12T20:25:55.512Z,100067.66
2022-11-12T20:29:19.514Z,100063.63
2022-11-12T20:32:42.335Z,100061.06
2022-11-12T20:36:06.333Z,100060.91
2022-11-12T20:39:29.024Z,100064.38
2022-11-12T20:42:52.403Z,100065.84
2022-11-12T20:46:16.972Z,100068.56
2022-11-12T20:49:39.795Z,100062.91
2022-11-12T20:53:02.733Z,100066.16
2022-11-12T20:56:26.946Z,100063.06
2022-11-12T20:59:51.556Z,100056.66
2022-11-12T21:03:16.689Z,100052.63
2022-11-12T21:06:39.555Z,100050.13
2022-11-12T21:10:02.498Z,100051.78
2022-11-12T21:13:25.340Z,100048.66
2022-11-12T21:16:48.261Z,100041.66
2022-11-12T21:20:12.383Z,100038.41
2022-11-12T21:23:36.644Z,100036.94
2022-11-12T21:27:00.044Z,100034.75
2022-11-12T21:30:22.821Z,100032.03
2022-11-12T21:33:46.412Z,100027.50
2022-11-12T21:37:10.799Z,100027.50
2022-11-12T21:40:33.561Z,100029.78
2022-11-12T21:43:56.602Z,100026.47
2022-11-12T21:47:19.471Z,100032.66
2022-11-12T21:50:43.042Z,100026.84
2022-11-12T21:54:08.498Z,100016.63
2022-11-12T21:57:31.751Z,100019.91
2022-11-12T22:00:54.412Z,100016.97
2022-11-12T22:04:18.562Z,100016.28
2022-11-12T22:07:41.415Z,100017.69
2022-11-12T22:11:07.498Z,100004.59
2022-11-12T22:14:30.188Z,100003.41
2022-11-12T22:17:53.276Z,100005.91
2022-11-12T22:21:17.705Z,100005.03
2022-11-12T22:24:40.378Z,99999.59
2022-11-12T22:28:04.348Z,99996.53
2022-11-12T22:31:28.713Z,99988.94
2022-11-12T22:34:51.337Z,99993.03
2022-11-12T22:38:13.973Z,99989.06
2022-11-12T22:41:37.307Z,99984.28
2022-11-12T22:45:01.206Z,99986.09
2022-11-12T22:48:24.054Z,99984.81
2022-11-12T22:51:46.647Z,99981.00
2022-11-12T22:55:09.856Z,99984.09
2022-11-12T22:58:32.626Z,99975.75
2022-11-12T23:01:56.714Z,99964.09
2022-11-12T23:05:19.500Z,99971.53
2022-11-12T23:08:42.691Z,99964.09
2022-11-12T23:12:05.364Z,99968.25
2022-11-12T23:15:30.131Z,99963.16
2022-11-12T23:18:55.093Z,99954.78
2022-11-12T23:22:17.781Z,99954.38
2022-11-12T23:25:40.871Z,99939.41
2022-11-12T23:29:03.775Z,99944.19
2022-11-12T23:32:26.403Z,99949.63
2022-11-12T23:35:50.493Z,99941.22
2022-11-12T23:39:13.156Z,99935.75
2022-11-12T23:42:35.859Z,99938.66
